createdAt,value
2022-11-02T00:02:23.783Z,64.23
2022-11-02T00:04:53.389Z,64.19
2022-11-02T00:07:21.330Z,65.00
2022-11-02T00:09:52.772Z,65.18
2022-11-02T00:16:33.436Z,64.84
2022-11-02T00:19:01.616Z,65.28
2022-11-02T00:21:29.767Z,65.05
2022-11-02T00:23:58.923Z,63.70
2022-11-02T00:26:27.411Z,64.62
2022-11-02T00:28:55.510Z,64.37
2022-11-02T00:31:23.243Z,64.08
2022-11-02T00:33:51.915Z,63.85
2022-11-02T00:36:21.061Z,63.76
2022-11-02T00:38:49.330Z,63.65
2022-11-02T00:41:20.089Z,64.24
2022-11-02T00:43:54.633Z,63.53
2022-11-02T00:46:22.624Z,63.34
2022-11-02T00:48:56.188Z,63.45
2022-11-02T00:51:24.654Z,64.31
2022-11-02T00:53:52.816Z,63.95
2022-11-02T00:56:20.344Z,64.04
2022-11-02T00:58:50.290Z,64.00
2022-11-02T01:01:17.822Z,64.45
2022-11-02T01:03:45.634Z,63.92
2022-11-02T01:06:15.499Z,63.90
2022-11-02T01:08:43.019Z,63.80
2022-11-02T01:11:13.845Z,63.89
2022-11-02T01:13:42.272Z,63.83
2022-11-02T01:16:10.899Z,63.75
2022-11-02T01:18:43.042Z,63.74
2022-11-02T01:21:13.104Z,64.41
2022-11-02T01:23:40.554Z,64.59
2022-11-02T01:26:09.335Z,64.72
2022-11-02T01:28:37.774Z,63.97
2022-11-02T01:31:07.453Z,64.89
2022-11-02T01:33:35.538Z,65.23
2022-11-02T01:36:07.426Z,65.10
2022-11-02T01:38:34.955Z,64.88
2022-11-02T01:41:02.681Z,64.94
2022-11-02T01:43:36.219Z,64.13
2022-11-02T01:46:12.763Z,64.77
2022-11-02T01:48:44.836Z,65.40
2022-11-02T01:51:35.559Z,66.31
2022-11-02T01:54:08.714Z,66.73
2022-11-02T01:56:38.530Z,66.26
2022-11-02T01:59:10.403Z,65.97
2022-11-02T02:01:38.154Z,66.04
2022-11-02T02:04:06.045Z,66.15
2022-11-02T02:06:36.280Z,66.31
2022-11-02T02:09:06.045Z,66.90
2022-11-02T02:11:35.881Z,66.74
2022-11-02T02:14:12.227Z,66.66
2022-11-02T02:16:45.098Z,65.86
2022-11-02T02:19:32.081Z,65.92
2022-11-02T02:22:07.284Z,66.49
2022-11-02T02:24:58.384Z,66.99
2022-11-02T02:27:47.318Z,67.13
2022-11-02T02:30:16.538Z,67.71
2022-11-02T02:32:54.934Z,66.59
2022-11-02T02:35:41.563Z,66.72
2022-11-02T02:38:18.370Z,66.31
2022-11-02T02:40:52.953Z,66.69
2022-11-02T02:43:26.503Z,66.71
2022-11-02T02:45:58.639Z,66.70
2022-11-02T02:48:26.950Z,66.83
2022-11-02T02:51:11.303Z,66.19
2022-11-02T02:53:42.944Z,66.31
2022-11-02T02:56:11.851Z,67.01
2022-11-02T02:58:51.891Z,66.84
2022-11-02T03:01:19.969Z,66.85
2022-11-02T03:03:48.383Z,66.77
2022-11-02T03:06:30.304Z,66.74
2022-11-02T03:09:04.987Z,66.63
2022-11-02T03:11:34.754Z,66.59
2022-11-02T03:14:17.645Z,66.52
2022-11-02T03:17:19.474Z,66.33
2022-11-02T03:20:16.958Z,65.93
2022-11-02T03:23:15.153Z,65.15
2022-11-02T03:25:50.572Z,66.78
2022-11-02T03:28:39.073Z,66.40
2022-11-02T03:31:10.032Z,66.41
2022-11-02T03:34:00.920Z,66.34
2022-11-02T03:37:01.513Z,66.58
2022-11-02T03:39:38.348Z,65.93
2022-11-02T03:42:07.301Z,66.23
2022-11-02T03:44:38.949Z,66.59
2022-11-02T03:47:10.263Z,66.73
2022-11-02T03:49:40.697Z,66.35
2022-11-02T03:52:15.784Z,66.42
2022-11-02T03:54:43.196Z,66.84
2022-11-02T03:57:22.358Z,66.65
2022-11-02T04:03:58.673Z,66.58
2022-11-02T04:06:26.910Z,66.49
2022-11-02T04:08:55.369Z,67.22
2022-11-02T04:11:43.904Z,66.81
2022-11-02T04:14:30.873Z,66.99
2022-11-02T04:17:19.380Z,66.77
2022-11-02T04:19:49.851Z,66.69
2022-11-02T04:22:37.801Z,67.16
2022-11-02T04:25:20.284Z,67.30
2022-11-02T04:27:52.921Z,67.31
2022-11-02T04:30:23.152Z,67.56
2022-11-02T04:33:10.411Z,67.04
2022-11-02T04:35:39.550Z,67.50
2022-11-02T04:38:27.209Z,67.43
2022-11-02T04:41:16.555Z,67.31
2022-11-02T04:43:45.211Z,67.71
2022-11-02T04:46:15.183Z,67.88
2022-11-02T04:48:43.542Z,67.81
2022-11-02T04:51:11.764Z,67.82
2022-11-02T04:53:46.826Z,67.57
2022-11-02T04:56:15.051Z,68.10
2022-11-02T04:58:45.366Z,66.99
2022-11-02T05:01:25.429Z,67.22
2022-11-02T05:03:55.211Z,68.06
2022-11-02T05:06:25.422Z,67.56
2022-11-02T05:08:54.417Z,68.22
2022-11-02T05:11:22.596Z,67.99
2022-11-02T05:13:50.685Z,68.12
2022-11-02T05:16:20.474Z,68.52
2022-11-02T05:18:50.254Z,68.58
2022-11-02T05:21:19.149Z,69.37
2022-11-02T05:23:48.536Z,68.36
2022-11-02T05:26:18.208Z,67.72
2022-11-02T05:28:48.411Z,68.00
2022-11-02T05:31:15.990Z,68.54
2022-11-02T05:33:47.760Z,68.40
2022-11-02T05:36:16.504Z,68.01
2022-11-02T05:38:44.580Z,68.20
2022-11-02T05:45:40.429Z,67.79
2022-11-02T05:48:08.279Z,67.74
2022-11-02T05:50:35.931Z,67.70
2022-11-02T05:53:04.469Z,67.91
2022-11-02T05:55:40.437Z,67.99
2022-11-02T05:58:10.732Z,67.57
2022-11-02T06:00:42.194Z,67.20
2022-11-02T06:05:45.077Z,67.22
2022-11-02T06:08:14.503Z,66.78
2022-11-02T06:10:47.247Z,67.93
2022-11-02T06:13:20.252Z,68.55
2022-11-02T06:15:48.667Z,68.53
2022-11-02T06:18:27.727Z,69.47
2022-11-02T06:20:59.189Z,68.87
2022-11-02T06:23:29.344Z,68.41
2022-11-02T06:26:01.677Z,68.86
2022-11-02T06:28:33.573Z,68.01
2022-11-02T06:31:02.371Z,68.17
2022-11-02T06:33:37.457Z,67.53
2022-11-02T06:36:07.868Z,67.83
2022-11-02T06:38:38.763Z,67.97
2022-11-02T06:41:07.441Z,67.98
2022-11-02T06:43:38.446Z,67.87
2022-11-02T06:46:08.091Z,68.05
2022-11-02T06:48:38.357Z,67.96
2022-11-02T06:51:07.869Z,67.94
2022-11-02T06:54:13.819Z,68.54
2022-11-02T06:56:53.965Z,67.72
2022-11-02T06:59:38.514Z,67.48
2022-11-02T07:02:22.207Z,68.18
2022-11-02T07:05:07.230Z,68.21
2022-11-02T07:07:49.578Z,68.43
2022-11-02T07:10:43.456Z,68.16
2022-11-02T07:13:15.350Z,67.12
2022-11-02T07:15:57.843Z,67.34
2022-11-02T07:18:27.247Z,66.36
2022-11-02T07:20:55.691Z,66.99
2022-11-02T07:23:24.340Z,67.64
2022-11-02T07:25:53.080Z,67.61
2022-11-02T07:28:22.093Z,67.77
2022-11-02T07:30:51.540Z,67.50
2022-11-02T07:33:27.271Z,67.31
2022-11-02T07:36:07.129Z,66.66
2022-11-02T07:38:39.555Z,66.94
2022-11-02T07:41:08.472Z,67.12
2022-11-02T07:43:41.386Z,67.38
2022-11-02T07:48:48.580Z,65.53
2022-11-02T07:51:19.558Z,65.42
2022-11-02T07:53:51.725Z,65.85
2022-11-02T07:56:20.059Z,64.96
2022-11-02T07:58:48.263Z,64.45
2022-11-02T08:01:17.366Z,65.45
2022-11-02T08:03:46.564Z,65.22
2022-11-02T08:06:14.486Z,65.92
2022-11-02T08:08:42.864Z,66.74
2022-11-02T08:11:11.125Z,66.07
2022-11-02T08:13:39.440Z,65.14
2022-11-02T08:16:08.246Z,64.59
2022-11-02T08:18:36.323Z,65.71
2022-11-02T08:21:06.236Z,65.33
2022-11-02T08:23:36.838Z,65.34
2022-11-02T08:26:08.250Z,64.76
2022-11-02T08:28:43.561Z,64.35
2022-11-02T08:31:17.922Z,64.19
2022-11-02T08:33:46.543Z,64.13
2022-11-02T08:36:14.647Z,64.89
2022-11-02T08:38:42.455Z,63.19
2022-11-02T08:41:10.664Z,63.94
2022-11-02T08:43:41.630Z,63.78
2022-11-02T08:46:15.339Z,63.49
2022-11-02T08:48:53.878Z,63.73
2022-11-02T08:51:21.933Z,63.50
2022-11-02T08:53:51.802Z,63.69
2022-11-02T08:56:21.904Z,64.36
2022-11-02T08:58:52.537Z,64.21
2022-11-02T09:01:20.717Z,64.40
2022-11-02T09:03:50.302Z,64.27
2022-11-02T09:06:19.836Z,63.95
2022-11-02T09:08:51.723Z,64.02
2022-11-02T09:11:22.789Z,63.78
2022-11-02T09:13:59.797Z,63.52
2022-11-02T09:16:31.555Z,63.95
2022-11-02T09:19:01.169Z,63.76
2022-11-02T09:21:30.203Z,62.82
2022-11-02T09:23:59.407Z,62.91
2022-11-02T09:26:29.013Z,63.06
2022-11-02T09:29:00.476Z,62.08
2022-11-02T09:31:30.228Z,60.65
2022-11-02T09:34:00.045Z,61.15
2022-11-02T09:36:30.379Z,60.81
2022-11-02T09:39:18.925Z,61.26
2022-11-02T09:41:51.759Z,61.71
2022-11-02T09:44:29.020Z,60.71
2022-11-02T09:47:39.742Z,61.46
2022-11-02T09:49:47.024Z,60.96
2022-11-02T09:52:26.329Z,61.69
2022-11-02T09:54:56.550Z,61.64
2022-11-02T09:57:32.282Z,61.19
2022-11-02T10:00:01.927Z,61.37
2022-11-02T10:02:59.125Z,60.26
2022-11-02T10:05:41.776Z,60.64
2022-11-02T10:08:30.560Z,60.47
2022-11-02T10:11:27.380Z,60.63
2022-11-02T10:14:11.220Z,60.81
2022-11-02T10:17:12.861Z,60.64
2022-11-02T10:19:42.337Z,61.62
2022-11-02T10:22:13.521Z,59.95
2022-11-02T10:24:47.230Z,60.48
2022-11-02T10:27:24.297Z,60.26
2022-11-02T10:30:00.072Z,60.94
2022-11-02T10:32:28.388Z,60.70
2022-11-02T10:34:59.304Z,60.06
2022-11-02T10:37:45.653Z,60.58
2022-11-02T10:40:41.377Z,59.64
2022-11-02T10:43:09.713Z,58.99
2022-11-02T10:45:49.977Z,58.60
2022-11-02T10:48:40.929Z,58.27
2022-11-02T10:51:13.549Z,57.06
2022-11-02T10:53:47.806Z,55.95
2022-11-02T10:56:19.344Z,55.26
2022-11-02T10:59:02.299Z,56.67
2022-11-02T11:01:32.772Z,55.46
2022-11-02T11:04:07.297Z,54.82
2022-11-02T11:06:49.442Z,54.45
2022-11-02T11:09:21.317Z,53.05
2022-11-02T11:12:07.273Z,52.74
2022-11-02T11:20:32.043Z,53.34
2022-11-02T11:23:21.275Z,53.10
2022-11-02T11:26:28.567Z,52.77
2022-11-02T11:28:57.952Z,52.11
2022-11-02T11:31:26.049Z,52.72
2022-11-02T11:34:00.352Z,53.66
2022-11-02T11:36:34.306Z,52.96
2022-11-02T11:39:05.995Z,52.21
2022-11-02T11:41:35.159Z,52.76
2022-11-02T11:44:04.367Z,52.65
2022-11-02T11:46:46.531Z,54.24
2022-11-02T11:49:36.003Z,54.45
2022-11-02T11:52:19.384Z,53.56
2022-11-02T11:54:57.543Z,53.63
2022-11-02T11:57:30.331Z,53.71
2022-11-02T12:00:05.189Z,52.51
2022-11-02T12:02:39.537Z,53.19
2022-11-02T12:05:16.545Z,55.32
2022-11-02T12:08:02.421Z,53.58
2022-11-02T12:10:30.790Z,53.07
2022-11-02T12:13:28.933Z,51.71
2022-11-02T12:16:20.586Z,51.71
2022-11-02T12:19:19.124Z,52.89
2022-11-02T12:22:07.454Z,52.35
2022-11-02T12:24:51.330Z,52.37
2022-11-02T12:27:31.145Z,51.02
2022-11-02T12:30:04.256Z,50.67
2022-11-02T12:32:35.058Z,51.08
2022-11-02T12:35:30.142Z,51.31
2022-11-02T12:38:23.417Z,51.34
2022-11-02T12:41:14.706Z,50.50
2022-11-02T12:43:44.723Z,51.45
2022-11-02T12:46:48.747Z,51.85
2022-11-02T12:49:38.346Z,50.96
2022-11-02T12:52:38.025Z,50.58
2022-11-02T12:55:17.660Z,48.65
2022-11-02T12:57:46.969Z,50.47
2022-11-02T13:00:22.344Z,50.12
2022-11-02T13:03:14.144Z,49.31
2022-11-02T13:05:51.567Z,49.28
2022-11-02T13:08:44.288Z,50.22
2022-11-02T13:11:23.119Z,50.38
2022-11-02T13:13:58.172Z,50.31
2022-11-02T13:16:44.737Z,48.91
2022-11-02T13:19:20.504Z,46.93
2022-11-02T13:21:55.126Z,47.09
2022-11-02T13:24:30.730Z,46.88
2022-11-02T13:27:22.064Z,47.12
2022-11-02T13:30:03.389Z,47.11
2022-11-02T13:32:43.769Z,46.04
2022-11-02T13:35:17.593Z,45.59
2022-11-02T13:37:50.159Z,47.31
2022-11-02T13:43:45.664Z,48.63
2022-11-02T13:46:44.612Z,47.89
2022-11-02T13:49:27.675Z,48.61
2022-11-02T13:52:02.788Z,48.65
2022-11-02T13:54:35.748Z,49.43
2022-11-02T13:57:07.682Z,49.90
2022-11-02T13:59:50.687Z,50.84
2022-11-02T14:02:30.640Z,51.25
2022-11-02T14:04:59.164Z,51.47
2022-11-02T14:07:36.052Z,51.55
2022-11-02T14:10:18.174Z,51.25
2022-11-02T14:12:53.497Z,51.96
2022-11-02T14:15:32.735Z,51.56
2022-11-02T14:18:20.422Z,51.99
2022-11-02T14:20:53.819Z,52.27
2022-11-02T14:23:26.064Z,52.43
2022-11-02T14:25:56.617Z,51.36
2022-11-02T14:28:44.680Z,51.71
2022-11-02T14:31:23.390Z,51.42
2022-11-02T14:34:26.258Z,51.54
2022-11-02T14:37:05.428Z,51.36
2022-11-02T14:39:46.628Z,52.07
2022-11-02T14:43:06.892Z,52.64
2022-11-02T14:45:48.746Z,52.37
2022-11-02T14:48:16.929Z,52.58
2022-11-02T14:51:05.253Z,54.32
2022-11-02T14:53:36.521Z,54.29
2022-11-02T14:56:05.917Z,55.26
2022-11-02T15:01:19.131Z,54.73
2022-11-02T15:03:48.522Z,55.21
2022-11-02T15:06:37.596Z,55.13
2022-11-02T15:09:11.622Z,55.46
2022-11-02T15:11:47.371Z,55.75
2022-11-02T15:14:43.214Z,56.16
2022-11-02T15:17:19.390Z,56.12
2022-11-02T15:19:52.013Z,55.89
2022-11-02T15:22:41.965Z,55.93
2022-11-02T15:25:20.833Z,56.48
2022-11-02T15:28:02.365Z,56.59
2022-11-02T15:30:32.512Z,56.78
2022-11-02T15:33:05.671Z,57.33
2022-11-02T15:35:37.585Z,57.52
2022-11-02T15:38:30.406Z,57.59
2022-11-02T15:41:24.911Z,58.05
2022-11-02T15:44:23.294Z,58.20
2022-11-02T15:47:01.420Z,58.38
2022-11-02T15:49:49.490Z,58.27
2022-11-02T15:52:28.348Z,58.27
2022-11-02T15:55:36.354Z,58.20
2022-11-02T15:58:35.449Z,58.30
2022-11-02T16:01:23.289Z,58.50
2022-11-02T16:03:58.910Z,58.67
2022-11-02T16:06:54.909Z,58.96
2022-11-02T16:09:35.329Z,58.57
2022-11-02T16:12:25.476Z,58.57
2022-11-02T16:15:12.085Z,58.53
2022-11-02T16:17:43.597Z,58.40
2022-11-02T16:20:19.775Z,58.12
2022-11-02T16:22:55.761Z,58.03
2022-11-02T16:25:39.913Z,58.13
2022-11-02T16:28:24.335Z,58.03
2022-11-02T16:31:10.269Z,58.11
2022-11-02T16:33:49.122Z,58.64
2022-11-02T16:36:20.335Z,58.75
2022-11-02T16:39:01.860Z,58.07
2022-11-02T16:41:38.346Z,58.75
2022-11-02T16:44:29.932Z,59.12
2022-11-02T16:47:09.354Z,59.33
2022-11-02T16:49:51.644Z,59.64
2022-11-02T16:52:34.514Z,59.31
2022-11-02T16:55:38.419Z,59.50
2022-11-02T16:58:21.424Z,59.01
2022-11-02T17:01:02.130Z,59.51
2022-11-02T17:03:37.783Z,60.41
2022-11-02T17:06:10.336Z,60.45
2022-11-02T17:08:39.858Z,60.20
2022-11-02T17:11:17.491Z,60.28
2022-11-02T17:14:03.438Z,60.83
2022-11-02T17:16:34.360Z,61.06
2022-11-02T17:19:06.147Z,60.28
2022-11-02T17:21:51.368Z,60.89
2022-11-02T17:24:33.077Z,61.77
2022-11-02T17:27:26.358Z,62.43
2022-11-02T17:30:00.222Z,61.93
2022-11-02T17:35:15.656Z,62.12
2022-11-02T17:37:51.368Z,61.70
2022-11-02T17:40:26.634Z,61.50
2022-11-02T17:43:04.307Z,61.43
2022-11-02T17:45:39.686Z,61.65
2022-11-02T17:48:11.308Z,62.02
2022-11-02T17:50:44.067Z,62.29
2022-11-02T17:53:15.258Z,62.38
2022-11-02T17:55:54.395Z,62.12
2022-11-02T18:01:05.720Z,62.12
2022-11-02T18:03:37.000Z,62.47
2022-11-02T18:06:18.872Z,62.26
2022-11-02T18:09:11.815Z,62.39
2022-11-02T18:11:46.529Z,62.38
2022-11-02T18:14:17.891Z,62.88
2022-11-02T18:16:52.969Z,63.44
2022-11-02T18:19:42.536Z,63.71
2022-11-02T18:22:12.542Z,63.70
2022-11-02T18:24:47.261Z,63.47
2022-11-02T18:27:22.579Z,63.52
2022-11-02T18:30:07.370Z,63.13
2022-11-02T18:32:43.219Z,62.89
2022-11-02T18:35:18.750Z,62.35
2022-11-02T18:37:49.621Z,62.11
2022-11-02T18:40:35.291Z,62.45
2022-11-02T18:43:06.811Z,62.35
2022-11-02T18:45:48.731Z,62.17
2022-11-02T18:48:17.330Z,62.02
2022-11-02T18:51:00.302Z,62.31
2022-11-02T18:53:30.466Z,62.67
2022-11-02T18:56:05.342Z,62.39
2022-11-02T18:58:41.554Z,62.32
2022-11-02T19:01:16.064Z,62.54
2022-11-02T19:04:10.852Z,62.70
2022-11-02T19:07:06.357Z,62.33
2022-11-02T19:12:28.819Z,63.13
2022-11-02T19:15:04.292Z,62.64
2022-11-02T19:20:20.562Z,63.18
2022-11-02T19:22:56.397Z,62.85
2022-11-02T19:28:09.850Z,62.51
2022-11-02T19:30:46.853Z,62.59
2022-11-02T19:33:16.509Z,62.83
2022-11-02T19:35:56.586Z,62.65
2022-11-02T19:38:40.423Z,62.79
2022-11-02T19:41:15.619Z,62.36
2022-11-02T19:43:53.136Z,62.66
2022-11-02T19:46:27.237Z,62.80
2022-11-02T19:52:01.606Z,62.15
2022-11-02T19:54:33.431Z,61.96
2022-11-02T19:57:08.573Z,61.97
2022-11-02T19:59:42.279Z,61.95
2022-11-02T20:04:54.432Z,61.77
2022-11-02T20:12:47.855Z,62.39
2022-11-02T20:15:23.030Z,62.40
2022-11-02T20:18:18.302Z,61.98
2022-11-02T20:20:55.507Z,61.94
2022-11-02T20:23:27.555Z,61.84
2022-11-02T20:26:17.724Z,61.74
2022-11-02T20:28:56.106Z,61.81
2022-11-02T20:31:28.637Z,62.93
2022-11-02T20:33:57.553Z,63.17
2022-11-02T20:36:30.314Z,63.09
2022-11-02T20:39:05.088Z,63.05
2022-11-02T20:41:33.655Z,62.50
2022-11-02T20:44:09.851Z,62.51
2022-11-02T20:46:52.747Z,62.28
2022-11-02T20:49:49.404Z,61.93
2022-11-02T20:52:23.336Z,62.71
2022-11-02T20:54:58.302Z,62.60
2022-11-02T20:57:32.413Z,62.08
2022-11-02T21:00:02.390Z,62.77
2022-11-02T21:02:33.397Z,62.79
2022-11-02T21:05:02.012Z,62.64
2022-11-02T21:07:32.673Z,62.74
2022-11-02T21:10:09.381Z,62.80
2022-11-02T21:13:02.720Z,63.43
2022-11-02T21:15:32.546Z,63.50
2022-11-02T21:18:00.646Z,64.00
2022-11-02T21:20:34.237Z,63.76
2022-11-02T21:23:10.648Z,63.60
2022-11-02T21:25:40.842Z,64.30
2022-11-02T21:28:10.831Z,64.02
2022-11-02T21:30:38.689Z,63.55
2022-11-02T21:33:06.599Z,63.91
2022-11-02T21:35:36.113Z,64.07
2022-11-02T21:40:40.031Z,63.86
2022-11-02T21:43:09.553Z,63.84
2022-11-02T21:45:38.588Z,63.36
2022-11-02T21:48:09.818Z,62.98
2022-11-02T21:50:39.543Z,63.32
2022-11-02T21:53:08.649Z,63.30
2022-11-02T21:55:38.583Z,62.71
2022-11-02T21:58:14.705Z,62.90
2022-11-02T22:01:02.498Z,62.54
2022-11-02T22:03:33.850Z,61.78
2022-11-02T22:06:05.633Z,61.56
2022-11-02T22:08:40.325Z,61.51
2022-11-02T22:11:10.430Z,60.74
2022-11-02T22:13:48.297Z,60.37
2022-11-02T22:16:38.146Z,61.13
2022-11-02T22:19:09.008Z,60.73
2022-11-02T22:21:40.091Z,60.34
2022-11-02T22:24:10.371Z,60.50
2022-11-02T22:26:38.724Z,60.46
2022-11-02T22:29:07.236Z,61.44
2022-11-02T22:31:40.085Z,60.56
2022-11-02T22:34:10.787Z,60.17
2022-11-02T22:36:43.360Z,60.94
2022-11-02T22:39:13.267Z,60.47
2022-11-02T22:41:47.674Z,61.28
2022-11-02T22:44:19.168Z,61.31
2022-11-02T22:46:51.480Z,60.27
2022-11-02T22:49:19.743Z,60.23
2022-11-02T22:51:49.119Z,60.50
2022-11-02T22:54:18.712Z,60.89
2022-11-02T22:56:47.933Z,61.35
2022-11-02T22:59:16.610Z,61.63
2022-11-02T23:01:46.278Z,61.56
2022-11-02T23:04:14.921Z,61.33
2022-11-02T23:06:42.909Z,61.81
2022-11-02T23:09:12.896Z,62.07
2022-11-02T23:11:41.084Z,62.26
2022-11-02T23:14:11.798Z,62.02
2022-11-02T23:16:42.917Z,61.95
2022-11-02T23:19:31.506Z,61.59
2022-11-02T23:22:26.152Z,61.37
2022-11-02T23:25:15.183Z,61.27
2022-11-02T23:28:17.566Z,61.50
2022-11-02T23:31:03.878Z,61.93
2022-11-02T23:33:38.119Z,62.17
2022-11-02T23:36:13.141Z,62.46
2022-11-02T23:39:06.208Z,62.83
2022-11-02T23:41:35.496Z,62.45
2022-11-02T23:44:12.820Z,62.47
2022-11-02T23:46:45.677Z,62.77
2022-11-02T23:49:17.369Z,63.04
2022-11-02T23:52:04.494Z,63.06
2022-11-02T23:54:51.183Z,63.43
2022-11-02T23:57:19.480Z,63.12
2022-11-02T23:59:47.780Z,61.30
